sensor_id;sensor_type;location;lat;lon;timestamp;pressure;altitude;pressure_sealevel;temperature;humidity
49515;BME280;35415;47.870;16.058;2022-12-24T00:01:22;96529.28;;;7.41;100.00
49515;BME280;35415;47.870;16.058;2022-12-24T00:03:50;96553.69;;;7.60;100.00
49515;BME280;35415;47.870;16.058;2022-12-24T00:06:22;96549.91;;;7.55;100.00
49515;BME280;35415;47.870;16.058;2022-12-24T00:08:52;96495.28;;;7.31;100.00
49515;BME280;35415;47.870;16.058;2022-12-24T00:11:20;96499.56;;;7.37;100.00
49515;BME280;35415;47.870;16.058;2022-12-24T00:13:49;96554.75;;;7.69;100.00
49515;BME280;35415;47.870;16.058;2022-12-24T00:16:18;96537.63;;;7.60;100.00
49515;BME280;35415;47.870;16.058;2022-12-24T00:18:45;96552.06;;;7.84;100.00
49515;BME280;35415;47.870;16.058;2022-12-24T00:21:13;96522.09;;;7.82;100.00
49515;BME280;35415;47.870;16.058;2022-12-24T00:23:41;96549.13;;;8.01;100.00
49515;BME280;35415;47.870;16.058;2022-12-24T00:26:10;96545.13;;;8.13;100.00
49515;BME280;35415;47.870;16.058;2022-12-24T00:28:38;96532.25;;;8.21;100.00
49515;BME280;35415;47.870;16.058;2022-12-24T00:31:09;96544.03;;;8.35;100.00
49515;BME280;35415;47.870;16.058;2022-12-24T00:33:39;96537.06;;;8.44;100.00
49515;BME280;35415;47.870;16.058;2022-12-24T00:36:09;96489.41;;;8.26;100.00
49515;BME280;35415;47.870;16.058;2022-12-24T00:38:37;96565.91;;;8.93;100.00
49515;BME280;35415;47.870;16.058;2022-12-24T00:41:09;96530.78;;;8.84;100.00
49515;BME280;35415;47.870;16.058;2022-12-24T00:43:50;96486.06;;;8.74;100.00
49515;BME280;35415;47.870;16.058;2022-12-24T00:46:18;96528.31;;;8.98;100.00
49515;BME280;35415;47.870;16.058;2022-12-24T00:48:47;96460.31;;;8.68;100.00
49515;BME280;35415;47.870;16.058;2022-12-24T00:51:16;96502.59;;;8.92;100.00
49515;BME280;35415;47.870;16.058;2022-12-24T00:53:45;96503.13;;;8.94;100.00
49515;BME280;35415;47.870;16.058;2022-12-24T00:56:13;96547.16;;;9.42;100.00
49515;BME280;35415;47.870;16.058;2022-12-24T00:58:41;96461.22;;;9.03;100.00
49515;BME280;35415;47.870;16.058;2022-12-24T01:01:09;96469.28;;;9.03;100.00
49515;BME280;35415;47.870;16.058;2022-12-24T01:03:37;96507.78;;;9.27;100.00
49515;BME280;35415;47.870;16.058;2022-12-24T01:06:10;96485.06;;;9.15;100.00
49515;BME280;35415;47.870;16.058;2022-12-24T01:08:37;96527.56;;;9.42;100.00
49515;BME280;35415;47.870;16.058;2022-12-24T01:11:06;96490.66;;;9.18;100.00
49515;BME280;35415;47.870;16.058;2022-12-24T01:13:35;96490.91;;;9.22;100.00
49515;BME280;35415;47.870;16.058;2022-12-24T01:16:10;96519.19;;;9.48;100.00
49515;BME280;35415;47.870;16.058;2022-12-24T01:18:43;96492.25;;;9.19;100.00
49515;BME280;35415;47.870;16.058;2022-12-24T01:21:14;96528.63;;;9.46;100.00
49515;BME280;35415;47.870;16.058;2022-12-24T01:23:42;96540.06;;;9.61;100.00
49515;BME280;35415;47.870;16.058;2022-12-24T01:26:12;96518.69;;;9.46;100.00
49515;BME280;35415;47.870;16.058;2022-12-24T01:28:42;96520.47;;;9.56;100.00
49515;BME280;35415;47.870;16.058;2022-12-24T01:31:11;96504.41;;;9.51;100.00
49515;BME280;35415;47.870;16.058;2022-12-24T01:33:39;96543.63;;;9.86;100.00
49515;BME280;35415;47.870;16.058;2022-12-24T01:36:07;96482.19;;;9.40;100.00
49515;BME280;35415;47.870;16.058;2022-12-24T01:38:49;96522.03;;;9.67;100.00
49515;BME280;35415;47.870;16.058;2022-12-24T01:41:21;96569.41;;;9.87;100.00
49515;BME280;35415;47.870;16.058;2022-12-24T01:44:17;96512.22;;;9.47;100.00
49515;BME280;35415;47.870;16.058;2022-12-24T01:46:45;96522.91;;;9.52;99.95
49515;BME280;35415;47.870;16.058;2022-12-24T01:49:17;96576.66;;;9.91;99.47
49515;BME280;35415;47.870;16.058;2022-12-24T01:51:47;96551.28;;;9.69;100.00
49515;BME280;35415;47.870;16.058;2022-12-24T01:54:24;96564.94;;;9.77;100.00
49515;BME280;35415;47.870;16.058;2022-12-24T01:57:01;96534.09;;;9.70;100.00
49515;BME280;35415;47.870;16.058;2022-12-24T01:59:31;96537.22;;;9.82;99.65
49515;BME280;35415;47.870;16.058;2022-12-24T02:02:00;96537.56;;;9.75;99.77
49515;BME280;35415;47.870;16.058;2022-12-24T02:04:36;96557.81;;;9.97;100.00
49515;BME280;35415;47.870;16.058;2022-12-24T02:07:07;96567.22;;;9.94;99.92
49515;BME280;35415;47.870;16.058;2022-12-24T02:09:37;96610.81;;;10.25;99.68
49515;BME280;35415;47.870;16.058;2022-12-24T02:12:06;96608.94;;;10.20;99.27
49515;BME280;35415;47.870;16.058;2022-12-24T02:14:34;96562.78;;;10.13;98.86
49515;BME280;35415;47.870;16.058;2022-12-24T02:17:12;96538.66;;;10.03;98.37
49515;BME280;35415;47.870;16.058;2022-12-24T02:20:16;96607.97;;;10.45;97.83
49515;BME280;35415;47.870;16.058;2022-12-24T02:23:06;96528.94;;;10.07;97.60
49515;BME280;35415;47.870;16.058;2022-12-24T02:25:57;96557.06;;;10.20;97.52
49515;BME280;35415;47.870;16.058;2022-12-24T02:28:43;96602.06;;;10.43;98.00
49515;BME280;35415;47.870;16.058;2022-12-24T02:31:25;96576.34;;;10.32;98.16
49515;BME280;35415;47.870;16.058;2022-12-24T02:34:04;96520.88;;;10.07;96.96
49515;BME280;35415;47.870;16.058;2022-12-24T02:36:37;96562.34;;;10.35;96.84
49515;BME280;35415;47.870;16.058;2022-12-24T02:39:10;96606.31;;;10.49;96.29
49515;BME280;35415;47.870;16.058;2022-12-24T02:41:40;96525.66;;;10.15;96.81
49515;BME280;35415;47.870;16.058;2022-12-24T02:44:28;96513.66;;;10.08;96.99
49515;BME280;35415;47.870;16.058;2022-12-24T02:46:59;96542.03;;;10.19;98.03
49515;BME280;35415;47.870;16.058;2022-12-24T02:49:29;96532.41;;;10.13;97.05
49515;BME280;35415;47.870;16.058;2022-12-24T02:51:58;96528.69;;;10.09;96.69
49515;BME280;35415;47.870;16.058;2022-12-24T02:54:25;96571.16;;;10.41;97.09
49515;BME280;35415;47.870;16.058;2022-12-24T02:57:03;96580.97;;;10.27;97.53
49515;BME280;35415;47.870;16.058;2022-12-24T02:59:56;96532.50;;;10.03;97.53
49515;BME280;35415;47.870;16.058;2022-12-24T03:02:36;96602.16;;;10.33;97.92
49515;BME280;35415;47.870;16.058;2022-12-24T03:05:21;96594.09;;;10.33;97.89
49515;BME280;35415;47.870;16.058;2022-12-24T03:07:59;96566.34;;;10.04;98.02
49515;BME280;35415;47.870;16.058;2022-12-24T03:10:35;96586.69;;;10.15;97.70
49515;BME280;35415;47.870;16.058;2022-12-24T03:13:09;96596.31;;;10.21;97.90
49515;BME280;35415;47.870;16.058;2022-12-24T03:15:39;96535.63;;;9.81;97.88
49515;BME280;35415;47.870;16.058;2022-12-24T03:18:14;96559.47;;;9.87;97.71
49515;BME280;35415;47.870;16.058;2022-12-24T03:20:45;96548.53;;;9.74;97.63
49515;BME280;35415;47.870;16.058;2022-12-24T03:23:16;96583.25;;;10.04;98.49
49515;BME280;35415;47.870;16.058;2022-12-24T03:25:45;96589.47;;;10.00;98.83
49515;BME280;35415;47.870;16.058;2022-12-24T03:28:16;96543.72;;;9.76;97.12
49515;BME280;35415;47.870;16.058;2022-12-24T03:30:47;96562.13;;;9.92;96.70
49515;BME280;35415;47.870;16.058;2022-12-24T03:33:16;96564.22;;;10.01;97.07
49515;BME280;35415;47.870;16.058;2022-12-24T03:35:44;96600.91;;;10.15;96.63
49515;BME280;35415;47.870;16.058;2022-12-24T03:38:12;96553.06;;;9.83;95.46
49515;BME280;35415;47.870;16.058;2022-12-24T03:40:39;96605.63;;;10.34;95.82
49515;BME280;35415;47.870;16.058;2022-12-24T03:43:08;96601.41;;;10.28;95.37
49515;BME280;35415;47.870;16.058;2022-12-24T03:45:38;96563.88;;;10.07;94.19
49515;BME280;35415;47.870;16.058;2022-12-24T03:48:08;96604.50;;;10.40;92.81
49515;BME280;35415;47.870;16.058;2022-12-24T03:50:37;96627.75;;;10.54;93.39
49515;BME280;35415;47.870;16.058;2022-12-24T03:53:04;96580.88;;;10.37;93.19
49515;BME280;35415;47.870;16.058;2022-12-24T03:55:32;96593.38;;;10.51;91.61
49515;BME280;35415;47.870;16.058;2022-12-24T03:57:59;96585.38;;;10.46;91.21
49515;BME280;35415;47.870;16.058;2022-12-24T04:00:27;96620.56;;;10.79;91.07
49515;BME280;35415;47.870;16.058;2022-12-24T04:02:55;96654.28;;;10.95;90.75
49515;BME280;35415;47.870;16.058;2022-12-24T04:05:22;96639.47;;;10.98;91.60
49515;BME280;35415;47.870;16.058;2022-12-24T04:07:52;96621.31;;;10.84;89.96
49515;BME280;35415;47.870;16.058;2022-12-24T04:10:19;96642.91;;;11.03;90.00
49515;BME280;35415;47.870;16.058;2022-12-24T04:12:47;96572.81;;;10.66;90.60
49515;BME280;35415;47.870;16.058;2022-12-24T04:15:16;96587.94;;;10.85;90.98
49515;BME280;35415;47.870;16.058;2022-12-24T04:17:43;96613.88;;;11.00;90.39
49515;BME280;35415;47.870;16.058;2022-12-24T04:20:11;96626.88;;;11.17;89.55
49515;BME280;35415;47.870;16.058;2022-12-24T04:22:39;96650.75;;;11.24;89.20
49515;BME280;35415;47.870;16.058;2022-12-24T04:25:09;96598.97;;;10.84;89.05
49515;BME280;35415;47.870;16.058;2022-12-24T04:27:37;96594.16;;;11.05;89.04
49515;BME280;35415;47.870;16.058;2022-12-24T04:30:07;96604.78;;;10.96;88.44
49515;BME280;35415;47.870;16.058;2022-12-24T04:32:34;96618.63;;;11.32;88.23
49515;BME280;35415;47.870;16.058;2022-12-24T04:35:02;96638.16;;;11.43;86.82
49515;BME280;35415;47.870;16.058;2022-12-24T04:37:32;96621.31;;;11.32;85.19
49515;BME280;35415;47.870;16.058;2022-12-24T04:40:02;96584.38;;;11.14;85.70
49515;BME280;35415;47.870;16.058;2022-12-24T04:42:31;96631.41;;;11.45;86.17
49515;BME280;35415;47.870;16.058;2022-12-24T04:44:58;96610.44;;;11.42;86.35
49515;BME280;35415;47.870;16.058;2022-12-24T04:47:25;96610.69;;;11.41;86.84
49515;BME280;35415;47.870;16.058;2022-12-24T04:49:53;96631.97;;;11.42;86.76
49515;BME280;35415;47.870;16.058;2022-12-24T04:52:21;96636.50;;;11.47;86.67
49515;BME280;35415;47.870;16.058;2022-12-24T04:54:50;96621.47;;;11.41;87.13
49515;BME280;35415;47.870;16.058;2022-12-24T04:57:17;96626.19;;;11.30;87.20
49515;BME280;35415;47.870;16.058;2022-12-24T04:59:45;96683.50;;;11.55;87.16
49515;BME280;35415;47.870;16.058;2022-12-24T05:02:13;96699.44;;;11.51;87.47
49515;BME280;35415;47.870;16.058;2022-12-24T05:04:41;96647.16;;;11.33;86.37
49515;BME280;35415;47.870;16.058;2022-12-24T05:07:08;96680.03;;;11.54;86.18
49515;BME280;35415;47.870;16.058;2022-12-24T05:09:38;96626.66;;;11.13;85.73
49515;BME280;35415;47.870;16.058;2022-12-24T05:12:06;96668.59;;;11.43;85.13
49515;BME280;35415;47.870;16.058;2022-12-24T05:14:34;96659.13;;;11.46;85.18
49515;BME280;35415;47.870;16.058;2022-12-24T05:17:06;96640.09;;;11.13;84.83
49515;BME280;35415;47.870;16.058;2022-12-24T05:19:33;96679.59;;;11.47;84.39
49515;BME280;35415;47.870;16.058;2022-12-24T05:22:01;96675.50;;;11.50;83.94
49515;BME280;35415;47.870;16.058;2022-12-24T05:24:46;96661.69;;;11.32;83.64
49515;BME280;35415;47.870;16.058;2022-12-24T05:27:30;96639.25;;;11.18;82.91
49515;BME280;35415;47.870;16.058;2022-12-24T05:29:58;96614.88;;;11.09;83.32
49515;BME280;35415;47.870;16.058;2022-12-24T05:32:27;96651.09;;;11.17;82.53
49515;BME280;35415;47.870;16.058;2022-12-24T05:34:55;96645.38;;;11.24;81.92
49515;BME280;35415;47.870;16.058;2022-12-24T05:37:22;96709.06;;;11.57;82.40
49515;BME280;35415;47.870;16.058;2022-12-24T05:39:49;96700.63;;;11.45;82.45
49515;BME280;35415;47.870;16.058;2022-12-24T05:42:17;96670.00;;;11.36;81.72
49515;BME280;35415;47.870;16.058;2022-12-24T05:44:44;96627.91;;;11.21;81.74
49515;BME280;35415;47.870;16.058;2022-12-24T05:47:11;96646.41;;;11.28;81.59
49515;BME280;35415;47.870;16.058;2022-12-24T05:49:40;96622.59;;;11.16;80.77
49515;BME280;35415;47.870;16.058;2022-12-24T05:52:07;96674.78;;;11.44;80.84
49515;BME280;35415;47.870;16.058;2022-12-24T05:54:35;96719.22;;;11.65;81.40
49515;BME280;35415;47.870;16.058;2022-12-24T05:57:02;96681.97;;;11.25;80.98
49515;BME280;35415;47.870;16.058;2022-12-24T05:59:30;96709.81;;;11.39;81.19
49515;BME280;35415;47.870;16.058;2022-12-24T06:01:57;96758.75;;;11.46;81.25
49515;BME280;35415;47.870;16.058;2022-12-24T06:04:24;96766.94;;;11.36;82.35
49515;BME280;35415;47.870;16.058;2022-12-24T06:06:54;96834.13;;;11.75;82.47
49515;BME280;35415;47.870;16.058;2022-12-24T06:09:21;96793.50;;;11.48;83.21
49515;BME280;35415;47.870;16.058;2022-12-24T06:11:48;96803.53;;;11.37;82.19
49515;BME280;35415;47.870;16.058;2022-12-24T06:14:16;96801.38;;;11.39;82.14
49515;BME280;35415;47.870;16.058;2022-12-24T06:16:43;96795.88;;;11.20;81.44
49515;BME280;35415;47.870;16.058;2022-12-24T06:19:11;96796.28;;;11.03;79.81
49515;BME280;35415;47.870;16.058;2022-12-24T06:21:39;96821.94;;;11.25;80.29
49515;BME280;35415;47.870;16.058;2022-12-24T06:24:11;96812.13;;;11.10;80.30
49515;BME280;35415;47.870;16.058;2022-12-24T06:26:38;96796.56;;;11.02;80.89
49515;BME280;35415;47.870;16.058;2022-12-24T06:29:06;96828.13;;;10.96;80.98
49515;BME280;35415;47.870;16.058;2022-12-24T06:31:33;96789.53;;;10.72;80.77
49515;BME280;35415;47.870;16.058;2022-12-24T06:34:00;96847.25;;;10.95;80.39
49515;BME280;35415;47.870;16.058;2022-12-24T06:36:28;96795.66;;;10.38;81.22
49515;BME280;35415;47.870;16.058;2022-12-24T06:38:58;96863.75;;;10.78;81.24
49515;BME280;35415;47.870;16.058;2022-12-24T06:41:27;96845.75;;;10.73;81.42
49515;BME280;35415;47.870;16.058;2022-12-24T06:43:54;96834.50;;;10.66;82.20
49515;BME280;35415;47.870;16.058;2022-12-24T06:46:24;96790.34;;;10.28;82.34
49515;BME280;35415;47.870;16.058;2022-12-24T06:48:52;96838.56;;;10.64;82.72
49515;BME280;35415;47.870;16.058;2022-12-24T06:51:20;96841.28;;;10.59;82.67
49515;BME280;35415;47.870;16.058;2022-12-24T06:53:48;96812.03;;;10.47;83.09
49515;BME280;35415;47.870;16.058;2022-12-24T06:56:17;96752.84;;;9.98;83.13
49515;BME280;35415;47.870;16.058;2022-12-24T06:58:47;96829.06;;;10.17;82.72
49515;BME280;35415;47.870;16.058;2022-12-24T07:01:16;96850.75;;;10.41;82.38
49515;BME280;35415;47.870;16.058;2022-12-24T07:03:44;96843.53;;;10.36;82.59
49515;BME280;35415;47.870;16.058;2022-12-24T07:06:16;96801.41;;;10.06;82.32
49515;BME280;35415;47.870;16.058;2022-12-24T07:08:45;96833.09;;;10.19;82.45
49515;BME280;35415;47.870;16.058;2022-12-24T07:11:12;96819.22;;;9.92;82.73
49515;BME280;35415;47.870;16.058;2022-12-24T07:13:40;96857.56;;;10.18;82.25
49515;BME280;35415;47.870;16.058;2022-12-24T07:16:09;96840.13;;;10.05;82.11
49515;BME280;35415;47.870;16.058;2022-12-24T07:18:36;96899.47;;;10.19;82.06
49515;BME280;35415;47.870;16.058;2022-12-24T07:21:06;96885.50;;;10.17;82.13
49515;BME280;35415;47.870;16.058;2022-12-24T07:23:35;96829.22;;;9.76;82.52
49515;BME280;35415;47.870;16.058;2022-12-24T07:26:04;96856.56;;;9.93;82.13
49515;BME280;35415;47.870;16.058;2022-12-24T07:28:33;96865.69;;;9.98;82.32
49515;BME280;35415;47.870;16.058;2022-12-24T07:31:03;96872.13;;;10.02;82.51
49515;BME280;35415;47.870;16.058;2022-12-24T07:33:34;96905.66;;;10.19;82.63
49515;BME280;35415;47.870;16.058;2022-12-24T07:36:03;96876.44;;;9.98;82.61
49515;BME280;35415;47.870;16.058;2022-12-24T07:38:32;96909.94;;;10.20;83.42
49515;BME280;35415;47.870;16.058;2022-12-24T07:41:02;96848.00;;;9.76;82.94
49515;BME280;35415;47.870;16.058;2022-12-24T07:43:31;96940.63;;;10.24;83.14
49515;BME280;35415;47.870;16.058;2022-12-24T07:46:00;96916.97;;;10.01;83.71
49515;BME280;35415;47.870;16.058;2022-12-24T07:48:29;96872.16;;;9.81;84.00
49515;BME280;35415;47.870;16.058;2022-12-24T07:50:58;96871.06;;;9.87;84.30
49515;BME280;35415;47.870;16.058;2022-12-24T07:53:27;96849.03;;;9.90;84.02
49515;BME280;35415;47.870;16.058;2022-12-24T07:55:57;96933.56;;;10.44;83.98
49515;BME280;35415;47.870;16.058;2022-12-24T07:58:24;96869.16;;;10.03;82.75
49515;BME280;35415;47.870;16.058;2022-12-24T08:00:56;96919.06;;;10.35;82.67
49515;BME280;35415;47.870;16.058;2022-12-24T08:03:24;96893.28;;;10.23;82.95
49515;BME280;35415;47.870;16.058;2022-12-24T08:06:12;96917.66;;;10.52;82.05
49515;BME280;35415;47.870;16.058;2022-12-24T08:08:39;96853.56;;;10.00;82.42
49515;BME280;35415;47.870;16.058;2022-12-24T08:11:06;96905.94;;;10.18;82.47
49515;BME280;35415;47.870;16.058;2022-12-24T08:13:34;96903.53;;;10.27;81.64
49515;BME280;35415;47.870;16.058;2022-12-24T08:16:04;96887.69;;;10.10;81.64
49515;BME280;35415;47.870;16.058;2022-12-24T08:18:33;96935.47;;;10.33;81.21
49515;BME280;35415;47.870;16.058;2022-12-24T08:21:00;96937.38;;;10.17;80.52
49515;BME280;35415;47.870;16.058;2022-12-24T08:23:35;96910.53;;;10.02;80.75
49515;BME280;35415;47.870;16.058;2022-12-24T08:26:06;96901.13;;;10.00;80.70
49515;BME280;35415;47.870;16.058;2022-12-24T08:28:35;96956.22;;;10.28;80.23
49515;BME280;35415;47.870;16.058;2022-12-24T08:31:02;96988.19;;;10.29;79.95
49515;BME280;35415;47.870;16.058;2022-12-24T08:33:30;96984.66;;;10.39;79.24
49515;BME280;35415;47.870;16.058;2022-12-24T08:36:00;97009.13;;;10.37;80.06
49515;BME280;35415;47.870;16.058;2022-12-24T08:38:29;96971.50;;;10.17;79.82
49515;BME280;35415;47.870;16.058;2022-12-24T08:40:57;96986.84;;;10.27;79.71
49515;BME280;35415;47.870;16.058;2022-12-24T08:43:24;96960.78;;;10.12;79.19
49515;BME280;35415;47.870;16.058;2022-12-24T08:45:52;97015.59;;;10.41;79.32
49515;BME280;35415;47.870;16.058;2022-12-24T08:48:20;96982.25;;;10.17;79.35
49515;BME280;35415;47.870;16.058;2022-12-24T08:51:00;97023.94;;;10.30;78.83
49515;BME280;35415;47.870;16.058;2022-12-24T08:53:33;97019.91;;;10.32;79.19
49515;BME280;35415;47.870;16.058;2022-12-24T08:56:01;96982.28;;;9.97;78.85
49515;BME280;35415;47.870;16.058;2022-12-24T08:58:37;97006.75;;;10.10;79.07
49515;BME280;35415;47.870;16.058;2022-12-24T09:01:09;97068.53;;;10.51;79.47
49515;BME280;35415;47.870;16.058;2022-12-24T09:03:37;97063.69;;;10.53;78.75
49515;BME280;35415;47.870;16.058;2022-12-24T09:06:09;97012.91;;;10.06;78.62
49515;BME280;35415;47.870;16.058;2022-12-24T09:08:38;97066.13;;;10.60;77.51
49515;BME280;35415;47.870;16.058;2022-12-24T09:11:09;97077.13;;;10.63;77.20
49515;BME280;35415;47.870;16.058;2022-12-24T09:13:37;97067.72;;;10.61;77.30
49515;BME280;35415;47.870;16.058;2022-12-24T09:16:05;97083.84;;;10.66;77.60
49515;BME280;35415;47.870;16.058;2022-12-24T09:18:33;97058.59;;;10.36;77.66
49515;BME280;35415;47.870;16.058;2022-12-24T09:21:06;97053.22;;;10.46;77.90
49515;BME280;35415;47.870;16.058;2022-12-24T09:23:34;97073.59;;;10.68;77.62
49515;BME280;35415;47.870;16.058;2022-12-24T09:26:06;97092.41;;;10.73;76.78
49515;BME280;35415;47.870;16.058;2022-12-24T09:28:36;97090.53;;;10.73;77.46
49515;BME280;35415;47.870;16.058;2022-12-24T09:31:04;97066.63;;;10.57;77.23
49515;BME280;35415;47.870;16.058;2022-12-24T09:33:34;97075.47;;;10.72;77.26
49515;BME280;35415;47.870;16.058;2022-12-24T09:36:05;97002.72;;;10.28;76.88
49515;BME280;35415;47.870;16.058;2022-12-24T09:38:36;97056.69;;;10.62;76.80
49515;BME280;35415;47.870;16.058;2022-12-24T09:41:14;97059.09;;;10.53;77.00
49515;BME280;35415;47.870;16.058;2022-12-24T09:43:46;97068.22;;;10.68;76.94
49515;BME280;35415;47.870;16.058;2022-12-24T09:46:21;97059.59;;;10.71;76.21
49515;BME280;35415;47.870;16.058;2022-12-24T09:48:53;97058.00;;;10.70;75.88
49515;BME280;35415;47.870;16.058;2022-12-24T09:51:27;97060.97;;;10.68;76.05
49515;BME280;35415;47.870;16.058;2022-12-24T09:54:00;97064.69;;;10.82;75.24
49515;BME280;35415;47.870;16.058;2022-12-24T09:56:33;97057.44;;;10.83;75.58
49515;BME280;35415;47.870;16.058;2022-12-24T09:59:12;97002.88;;;10.57;74.72
49515;BME280;35415;47.870;16.058;2022-12-24T10:01:40;97108.78;;;11.02;74.63
49515;BME280;35415;47.870;16.058;2022-12-24T10:04:10;97061.44;;;10.91;74.63
49515;BME280;35415;47.870;16.058;2022-12-24T10:06:47;97032.47;;;10.67;74.53
49515;BME280;35415;47.870;16.058;2022-12-24T10:09:24;97086.69;;;11.10;74.91
49515;BME280;35415;47.870;16.058;2022-12-24T10:12:02;97029.72;;;10.82;74.49
49515;BME280;35415;47.870;16.058;2022-12-24T10:14:44;97010.69;;;10.64;74.41
49515;BME280;35415;47.870;16.058;2022-12-24T10:17:33;97047.44;;;10.89;74.43
49515;BME280;35415;47.870;16.058;2022-12-24T10:20:38;97038.88;;;10.81;73.57
49515;BME280;35415;47.870;16.058;2022-12-24T10:23:20;97009.31;;;10.66;73.71
49515;BME280;35415;47.870;16.058;2022-12-24T10:25:58;97064.66;;;10.98;73.99
49515;BME280;35415;47.870;16.058;2022-12-24T10:28:37;97081.00;;;11.17;73.98
49515;BME280;35415;47.870;16.058;2022-12-24T10:31:08;97034.84;;;10.79;73.19
49515;BME280;35415;47.870;16.058;2022-12-24T10:33:39;97021.91;;;10.86;72.84
49515;BME280;35415;47.870;16.058;2022-12-24T10:36:11;97071.28;;;11.21;73.53
49515;BME280;35415;47.870;16.058;2022-12-24T10:38:42;97032.09;;;10.99;73.18
49515;BME280;35415;47.870;16.058;2022-12-24T10:41:11;97046.34;;;11.00;72.98
49515;BME280;35415;47.870;16.058;2022-12-24T10:43:43;97021.63;;;10.88;72.80
49515;BME280;35415;47.870;16.058;2022-12-24T10:46:26;97013.06;;;10.75;73.29
49515;BME280;35415;47.870;16.058;2022-12-24T10:48:59;97047.44;;;10.99;72.53
49515;BME280;35415;47.870;16.058;2022-12-24T10:51:34;97024.59;;;10.86;73.11
49515;BME280;35415;47.870;16.058;2022-12-24T10:54:06;97059.22;;;11.08;72.95
49515;BME280;35415;47.870;16.058;2022-12-24T10:56:39;97042.59;;;10.91;72.63
49515;BME280;35415;47.870;16.058;2022-12-24T10:59:21;97025.69;;;10.75;73.19
49515;BME280;35415;47.870;16.058;2022-12-24T11:01:52;97041.25;;;10.93;73.45
49515;BME280;35415;47.870;16.058;2022-12-24T11:04:22;96996.72;;;10.62;73.29
49515;BME280;35415;47.870;16.058;2022-12-24T11:06:54;97085.06;;;11.14;73.48
49515;BME280;35415;47.870;16.058;2022-12-24T11:09:24;97090.72;;;11.07;73.67
49515;BME280;35415;47.870;16.058;2022-12-24T11:11:52;97088.28;;;11.11;73.75
49515;BME280;35415;47.870;16.058;2022-12-24T11:14:22;97089.38;;;11.05;73.63
49515;BME280;35415;47.870;16.058;2022-12-24T11:16:52;97066.56;;;10.87;73.74
49515;BME280;35415;47.870;16.058;2022-12-24T11:19:26;97049.09;;;10.74;73.95
49515;BME280;35415;47.870;16.058;2022-12-24T11:22:01;97077.31;;;10.92;73.95
49515;BME280;35415;47.870;16.058;2022-12-24T11:24:31;97087.50;;;11.10;73.96
49515;BME280;35415;47.870;16.058;2022-12-24T11:27:28;97085.88;;;11.09;74.43
49515;BME280;35415;47.870;16.058;2022-12-24T11:30:27;97049.91;;;10.80;73.65
49515;BME280;35415;47.870;16.058;2022-12-24T11:33:19;97101.69;;;11.21;74.26
49515;BME280;35415;47.870;16.058;2022-12-24T11:35:50;97126.19;;;11.25;74.39
49515;BME280;35415;47.870;16.058;2022-12-24T11:38:22;97110.31;;;11.28;74.56
49515;BME280;35415;47.870;16.058;2022-12-24T11:40:59;97096.38;;;11.11;74.53
49515;BME280;35415;47.870;16.058;2022-12-24T11:43:34;97079.13;;;11.07;74.41
49515;BME280;35415;47.870;16.058;2022-12-24T11:46:20;97044.19;;;10.92;74.41
49515;BME280;35415;47.870;16.058;2022-12-24T11:48:47;97121.81;;;11.44;74.69
49515;BME280;35415;47.870;16.058;2022-12-24T11:51:23;97096.81;;;11.33;74.77
49515;BME280;35415;47.870;16.058;2022-12-24T11:53:59;97109.47;;;11.33;74.30
49515;BME280;35415;47.870;16.058;2022-12-24T11:56:32;97130.63;;;11.55;74.23
49515;BME280;35415;47.870;16.058;2022-12-24T11:59:08;97134.38;;;11.59;73.76
49515;BME280;35415;47.870;16.058;2022-12-24T12:01:47;97098.09;;;11.41;74.02
49515;BME280;35415;47.870;16.058;2022-12-24T12:04:19;97110.25;;;11.43;73.60
49515;BME280;35415;47.870;16.058;2022-12-24T12:06:54;97105.94;;;11.37;73.47
49515;BME280;35415;47.870;16.058;2022-12-24T12:09:25;97151.06;;;11.66;73.67
49515;BME280;35415;47.870;16.058;2022-12-24T12:11:59;97142.16;;;11.70;73.92
49515;BME280;35415;47.870;16.058;2022-12-24T12:14:32;97129.56;;;11.56;73.41
49515;BME280;35415;47.870;16.058;2022-12-24T12:17:23;97115.88;;;11.47;73.81
49515;BME280;35415;47.870;16.058;2022-12-24T12:20:01;97170.47;;;11.68;73.91
49515;BME280;35415;47.870;16.058;2022-12-24T12:22:37;97169.34;;;11.74;73.52
49515;BME280;35415;47.870;16.058;2022-12-24T12:25:21;97071.00;;;11.22;73.79
49515;BME280;35415;47.870;16.058;2022-12-24T12:27:59;97115.91;;;11.37;73.85
49515;BME280;35415;47.870;16.058;2022-12-24T12:30:37;97156.72;;;11.69;73.48
49515;BME280;35415;47.870;16.058;2022-12-24T12:33:25;97155.41;;;11.62;73.42
49515;BME280;35415;47.870;16.058;2022-12-24T12:36:04;97117.81;;;11.31;73.49
49515;BME280;35415;47.870;16.058;2022-12-24T12:38:32;97114.56;;;11.34;73.21
49515;BME280;35415;47.870;16.058;2022-12-24T12:41:07;97147.91;;;11.49;73.19
49515;BME280;35415;47.870;16.058;2022-12-24T12:44:03;97187.97;;;11.65;73.96
49515;BME280;35415;47.870;16.058;2022-12-24T12:46:43;97118.66;;;11.27;73.40
49515;BME280;35415;47.870;16.058;2022-12-24T12:49:24;97186.63;;;11.68;73.27
49515;BME280;35415;47.870;16.058;2022-12-24T12:52:01;97170.78;;;11.56;72.63
49515;BME280;35415;47.870;16.058;2022-12-24T12:54:39;97201.19;;;11.67;72.88
49515;BME280;35415;47.870;16.058;2022-12-24T12:57:13;97164.34;;;11.47;73.14
49515;BME280;35415;47.870;16.058;2022-12-24T12:59:52;97174.56;;;11.50;73.13
49515;BME280;35415;47.870;16.058;2022-12-24T13:02:40;97147.19;;;11.28;73.43
49515;BME280;35415;47.870;16.058;2022-12-24T13:05:30;97124.91;;;11.12;73.54
49515;BME280;35415;47.870;16.058;2022-12-24T13:08:16;97179.72;;;11.41;73.66
49515;BME280;35415;47.870;16.058;2022-12-24T13:11:04;97220.34;;;11.55;74.02
49515;BME280;35415;47.870;16.058;2022-12-24T13:17:11;97227.34;;;11.56;74.46
49515;BME280;35415;47.870;16.058;2022-12-24T13:20:07;97221.19;;;11.45;75.14